Forty Two — WDD4780 — position and weather

sailwx.info

Track history (hours):
 
Tides and Currents Weather Stations Pressure Air Temp Water Temp Dewpoint Dewpoint Depression Visibility Wind Speed Wind Dir Waves Ship Positions

Forty Two

Owner: allen, christopher h, port angeles, WA. More information available from US FCC via Universal Licensing System and Coast Guard Vessel Documentation Center.

Last reported at 2016-Sep-25 04:33 UTC. Time now 2016-Sep-25 05:33 UTC.
Position N 29°49' W 092°08'.

Length 38 m.

Type: Passenger vessel. MMSI: 367455780.

Date/timePositionNaut miles runAvg speedWind from/ knotsBaromVisibWave heightAir tempDewpointWater temp
2016-Sep-25 04:33N 29°49' W 092°08'0 0.0
2016-Sep-25 00:33N 29°49' W 092°08'0 0.0
2016-Sep-24 22:33N 29°49' W 092°08'4 3.8
2016-Sep-24 21:33N 29°46' W 092°11'14 0.8
2016-Sep-24 03:17N 29°34' W 092°18'810.6
2016-Sep-24 02:34N 29°41' W 092°15'9 9.0
2016-Sep-24 01:34N 29°48' W 092°08'2 2.0
2016-Sep-24 00:33N 29°49' W 092°08'0 0.0
2016-Sep-23 19:34N 29°49' W 092°08'0 0.0
2016-Sep-23 17:34N 29°49' W 092°08'0 0.0
2016-Sep-23 16:34N 29°49' W 092°08'0 0.0
2016-Sep-23 15:33N 29°49' W 092°08'3 1.3
2016-Sep-23 13:33N 29°47' W 092°09'3 0.7
2016-Sep-23 09:33N 29°49' W 092°08'0 0.0
2016-Sep-23 06:33N 29°49' W 092°08'0 0.0
2016-Sep-23 04:24N 29°49' W 092°08'0 0.0
2016-Sep-23 03:33N 29°49' W 092°08'3 2.5
2016-Sep-23 02:33N 29°47' W 092°09'1211.5
2016-Sep-23 01:33N 29°38' W 092°16'0 0.0
2016-Sep-22 04:33N 29°37' W 092°16'1211.8
2016-Sep-22 03:33N 29°47' W 092°09'3 0.9
2016-Sep-22 00:33N 29°49' W 092°08'0 0.0
2016-Sep-21 23:33N 29°49' W 092°08'0 0.0
2016-Sep-21 22:33N 29°49' W 092°08'0 0.0
2016-Sep-21 19:33N 29°49' W 092°08'0 0.0
2016-Sep-21 16:33N 29°49' W 092°08'3 0.2
2016-Sep-21 03:33N 29°47' W 092°09'2 1.7
2016-Sep-21 02:34N 29°46' W 092°11'4 0.5
2016-Sep-20 17:34N 29°49' W 092°08'2 0.8
2016-Sep-20 14:33N 29°47' W 092°09'9 8.7
2016-Sep-20 13:34N 29°41' W 092°15'1 0.1
2016-Sep-19 18:33N 29°40' W 092°16'12 5.9
2016-Sep-19 16:33N 29°49' W 092°08'0 0.0
2016-Sep-19 14:33N 29°49' W 092°08'0 0.0
2016-Sep-19 13:33N 29°49' W 092°08'0 0.0
2016-Sep-19 12:33N 29°49' W 092°08'0 0.0
2016-Sep-19 11:33N 29°49' W 092°08'0 0.0
2016-Sep-19 09:33N 29°49' W 092°08'0 0.0
2016-Sep-19 07:33N 29°49' W 092°08'0 0.0
2016-Sep-19 06:33N 29°49' W 092°08'0 0.0
2016-Sep-19 02:33N 29°49' W 092°08'0 0.0
2016-Sep-19 00:33N 29°49' W 092°08'0 0.0
2016-Sep-18 19:33N 29°49' W 092°08'3 0.7
2016-Sep-18 15:33N 29°47' W 092°09'1 1.0
2016-Sep-18 14:33N 29°48' W 092°08'2 0.5
2016-Sep-18 10:33N 29°49' W 092°08'0 0.0
2016-Sep-18 09:33N 29°49' W 092°08'0 0.0
2016-Sep-18 02:33N 29°49' W 092°08'0 0.0
2016-Sep-18 01:34N 29°49' W 092°08'0 0.0
2016-Sep-18 00:33N 29°49' W 092°08'0 0.0
2016-Sep-17 22:33N 29°49' W 092°08'0 0.0
2016-Sep-17 21:33N 29°49' W 092°08'0 0.0
2016-Sep-17 20:34N 29°49' W 092°08'0 0.0
2016-Sep-17 19:16N 29°49' W 092°08'0 0.0
2016-Sep-17 13:33N 29°49' W 092°08'0 0.0
2016-Sep-17 12:34N 29°49' W 092°08'0 0.0
2016-Sep-17 10:34N 29°49' W 092°08'9 9.0
2016-Sep-17 09:33N 29°43' W 092°15'1010.0
2016-Sep-17 08:34N 29°33' W 092°18'3 0.2
2016-Sep-16 15:33N 29°36' W 092°17'16 5.3
2016-Sep-16 12:33N 29°49' W 092°08'  
Track history (hours):
 
Tides and Currents Weather Stations Pressure Air Temp Water Temp Dewpoint Dewpoint Depression Visibility Wind Speed Wind Dir Waves Ship Positions

Forty Two

Owner: allen, christopher h, port angeles, WA. More information available from US FCC via Universal Licensing System and Coast Guard Vessel Documentation Center.

Last reported at 2016-Sep-25 04:33 UTC. Time now 2016-Sep-25 05:33 UTC.
Position N 29°49' W 092°08'.

Length 38 m.

Type: Passenger vessel. MMSI: 367455780.

Date/timePositionNaut miles runAvg speedWind from/ knotsBaromVisibWave heightAir tempDewpointWater temp
2016-Sep-25 04:33N 29°49' W 092°08'0 0.0
2016-Sep-25 00:33N 29°49' W 092°08'0 0.0
2016-Sep-24 22:33N 29°49' W 092°08'4 3.8
2016-Sep-24 21:33N 29°46' W 092°11'14 0.8
2016-Sep-24 03:17N 29°34' W 092°18'810.6
2016-Sep-24 02:34N 29°41' W 092°15'9 9.0
2016-Sep-24 01:34N 29°48' W 092°08'2 2.0
2016-Sep-24 00:33N 29°49' W 092°08'0 0.0
2016-Sep-23 19:34N 29°49' W 092°08'0 0.0
2016-Sep-23 17:34N 29°49' W 092°08'0 0.0
2016-Sep-23 16:34N 29°49' W 092°08'0 0.0
2016-Sep-23 15:33N 29°49' W 092°08'3 1.3
2016-Sep-23 13:33N 29°47' W 092°09'3 0.7
2016-Sep-23 09:33N 29°49' W 092°08'0 0.0
2016-Sep-23 06:33N 29°49' W 092°08'0 0.0
2016-Sep-23 04:24N 29°49' W 092°08'0 0.0
2016-Sep-23 03:33N 29°49' W 092°08'3 2.5
2016-Sep-23 02:33N 29°47' W 092°09'1211.5
2016-Sep-23 01:33N 29°38' W 092°16'0 0.0
2016-Sep-22 04:33N 29°37' W 092°16'1211.8
2016-Sep-22 03:33N 29°47' W 092°09'3 0.9
2016-Sep-22 00:33N 29°49' W 092°08'0 0.0
2016-Sep-21 23:33N 29°49' W 092°08'0 0.0
2016-Sep-21 22:33N 29°49' W 092°08'0 0.0
2016-Sep-21 19:33N 29°49' W 092°08'0 0.0
2016-Sep-21 16:33N 29°49' W 092°08'3 0.2
2016-Sep-21 03:33N 29°47' W 092°09'2 1.7
2016-Sep-21 02:34N 29°46' W 092°11'4 0.5
2016-Sep-20 17:34N 29°49' W 092°08'2 0.8
2016-Sep-20 14:33N 29°47' W 092°09'9 8.7
2016-Sep-20 13:34N 29°41' W 092°15'1 0.1
2016-Sep-19 18:33N 29°40' W 092°16'12 5.9
2016-Sep-19 16:33N 29°49' W 092°08'0 0.0
2016-Sep-19 14:33N 29°49' W 092°08'0 0.0
2016-Sep-19 13:33N 29°49' W 092°08'0 0.0
2016-Sep-19 12:33N 29°49' W 092°08'0 0.0
2016-Sep-19 11:33N 29°49' W 092°08'0 0.0
2016-Sep-19 09:33N 29°49' W 092°08'0 0.0
2016-Sep-19 07:33N 29°49' W 092°08'0 0.0
2016-Sep-19 06:33N 29°49' W 092°08'0 0.0
2016-Sep-19 02:33N 29°49' W 092°08'0 0.0
2016-Sep-19 00:33N 29°49' W 092°08'0 0.0
2016-Sep-18 19:33N 29°49' W 092°08'3 0.7
2016-Sep-18 15:33N 29°47' W 092°09'1 1.0
2016-Sep-18 14:33N 29°48' W 092°08'2 0.5
2016-Sep-18 10:33N 29°49' W 092°08'0 0.0
2016-Sep-18 09:33N 29°49' W 092°08'0 0.0
2016-Sep-18 02:33N 29°49' W 092°08'0 0.0
2016-Sep-18 01:34N 29°49' W 092°08'0 0.0
2016-Sep-18 00:33N 29°49' W 092°08'0 0.0
2016-Sep-17 22:33N 29°49' W 092°08'0 0.0
2016-Sep-17 21:33N 29°49' W 092°08'0 0.0
2016-Sep-17 20:34N 29°49' W 092°08'0 0.0
2016-Sep-17 19:16N 29°49' W 092°08'0 0.0
2016-Sep-17 13:33N 29°49' W 092°08'0 0.0
2016-Sep-17 12:34N 29°49' W 092°08'0 0.0
2016-Sep-17 10:34N 29°49' W 092°08'9 9.0
2016-Sep-17 09:33N 29°43' W 092°15'1010.0
2016-Sep-17 08:34N 29°33' W 092°18'3 0.2
2016-Sep-16 15:33N 29°36' W 092°17'16 5.3
2016-Sep-16 12:33N 29°49' W 092°08'  

Dump ship's entire track history